Kailua, HI

10:18 PM HST on February 07, 2016 (GMT -1000)
Kaneohe Bay Dr | | Change Station
CLOSE
Current Station
Personal Weather Station
Location: Kaneohe, HI
Elevation: 78 ft
Nearby Weather Stations
Active Advisory: High Surf Advisory

Elev 78 ft 21.41 °N, 157.77 °W | Updated 4 seconds ago

Scattered Clouds
Scattered Clouds
68.4 °F
Feels Like 68.4 °F
N
12.1
Wind Variable Wind from NE
Gusts 16.0 mph

Today
High -- | Low -- °F
--% Chance of Precip.
Yesterday
High -- | Low -- °F
Precip. -- in
Pressure 30.02 in
Visibility 7.0 miles
Clouds Few 5000 ft
Scattered Clouds 6500 ft
Dew Point 52 °F
Humidity 57%
Rainfall 0.00 in
Snow Depth Not available.
7:06 AM 6:24 PM
Waning Crescent, 0% visible
METAR PHNG 080757Z 02014KT 7SM FEW050 SCT065 20/10 A3004 RMK AO2 SLP166 T02000100 $
Pressure 30.02 in
Visibility 7.0 miles
Clouds Few 5000 ft
Scattered Clouds 6500 ft
Dew Point 52 °F
Humidity 57%
Rainfall 0.00 in
Snow Depth Not available.
7:06 AM 6:24 PM
Waning Crescent, 0% visible
METAR PHNG 080757Z 02014KT 7SM FEW050 SCT065 20/10 A3004 RMK AO2 SLP166 T02000100 $

10-Day Weather Forecast

Almanac

Astronomy

Feb. 07, 2016 Rise Set
Actual Time
Civil Twilight
Nautical Twilight
Astronomical Twilight
Moon
Length of Visible Light
Length of Day
Tomorrow will be .
, % of the Moon is Illuminated

Today's Extremes

State Highs State Lows

Community

WunderPhotos

Upload Photos

1,891,412 photos uploaded!

WunderBlog® & News

Nearby

Air Quality

  Air Quality AQ Index Pollutant
Not available.

Snow Depth

Station Depth Elevation

Earthquake Activity

City Distance Mag. Time & Date
Minimum magnitude displayed is 2.5.

Coastal Water Temperatures

Place Temperature

Stations

Nearby Weather Stations

Station Location Temp. Windchill Dew Point Humidity Wind Precip. Elev Updated Type
                   

Watches & Warnings

High Surf Advisory
Issued: 3:50 PM HST Feb. 7, 2016 – National Weather Service

... High surf advisory remains in effect until 6 PM HST Monday...

* surf... along north and west facing shores of Kauai and Niihau
and north facing shores of Oahu Molokai and Maui... 10 to 15
feet.

* Timing... through 6 PM HST Monday.

* Impacts... moderate... expect strong breaking waves... shore
break... and strong longshore and rip currents making swimming
difficult and dangerous.

Precautionary/preparedness actions... beachgoers... swimmers... and
surfers should heed all advice given by ocean safety officials
and exercise caution.